sensor_id;sensor_type;location;lat;lon;timestamp;pressure;altitude;pressure_sealevel;temperature;humidity
16664;BME280;8445;51.270;9.434;2023-04-07T00:01:37;99501.16;;;7.55;51.24
16664;BME280;8445;51.270;9.434;2023-04-07T00:04:02;99491.66;;;7.52;51.75
16664;BME280;8445;51.270;9.434;2023-04-07T00:06:28;99494.47;;;7.49;52.03
16664;BME280;8445;51.270;9.434;2023-04-07T00:08:53;99495.44;;;7.48;52.08
16664;BME280;8445;51.270;9.434;2023-04-07T00:11:19;99501.63;;;7.47;52.30
16664;BME280;8445;51.270;9.434;2023-04-07T00:13:45;99493.91;;;7.44;52.02
16664;BME280;8445;51.270;9.434;2023-04-07T00:16:10;99495.63;;;7.45;51.80
16664;BME280;8445;51.270;9.434;2023-04-07T00:18:36;99500.75;;;7.47;52.06
16664;BME280;8445;51.270;9.434;2023-04-07T00:21:01;99496.63;;;7.42;53.08
16664;BME280;8445;51.270;9.434;2023-04-07T00:23:29;99487.16;;;7.40;52.16
16664;BME280;8445;51.270;9.434;2023-04-07T00:25:56;99487.16;;;7.40;52.24
16664;BME280;8445;51.270;9.434;2023-04-07T00:28:21;99481.88;;;7.40;51.99
16664;BME280;8445;51.270;9.434;2023-04-07T00:30:47;99480.28;;;7.37;51.91
16664;BME280;8445;51.270;9.434;2023-04-07T00:33:15;99481.44;;;7.33;53.53
16664;BME280;8445;51.270;9.434;2023-04-07T00:35:41;99483.38;;;7.30;53.09
16664;BME280;8445;51.270;9.434;2023-04-07T00:38:10;99481.50;;;7.32;52.69
16664;BME280;8445;51.270;9.434;2023-04-07T00:40:36;99475.50;;;7.30;52.80
16664;BME280;8445;51.270;9.434;2023-04-07T00:43:04;99477.19;;;7.31;52.75
16664;BME280;8445;51.270;9.434;2023-04-07T00:45:29;99475.59;;;7.28;52.73
16664;BME280;8445;51.270;9.434;2023-04-07T00:47:56;99469.41;;;7.29;52.88
16664;BME280;8445;51.270;9.434;2023-04-07T00:50:22;99484.44;;;7.27;52.86
16664;BME280;8445;51.270;9.434;2023-04-07T00:52:52;99474.16;;;7.22;52.67
16664;BME280;8445;51.270;9.434;2023-04-07T00:55:19;99469.09;;;7.19;53.07
16664;BME280;8445;51.270;9.434;2023-04-07T00:57:47;99462.13;;;7.18;53.75
16664;BME280;8445;51.270;9.434;2023-04-07T01:00:15;99469.28;;;7.16;53.24
16664;BME280;8445;51.270;9.434;2023-04-07T01:02:46;99463.25;;;7.14;53.15
16664;BME280;8445;51.270;9.434;2023-04-07T01:07:55;99460.81;;;7.11;53.52
16664;BME280;8445;51.270;9.434;2023-04-07T01:10:30;99464.56;;;7.07;53.75
16664;BME280;8445;51.270;9.434;2023-04-07T01:13:09;99455.00;;;7.06;53.92
16664;BME280;8445;51.270;9.434;2023-04-07T01:15:41;99454.16;;;7.05;54.17
16664;BME280;8445;51.270;9.434;2023-04-07T01:18:21;99451.50;;;7.05;54.63
16664;BME280;8445;51.270;9.434;2023-04-07T01:20:49;99454.25;;;7.04;54.77
16664;BME280;8445;51.270;9.434;2023-04-07T01:23:31;99454.03;;;7.07;53.66
16664;BME280;8445;51.270;9.434;2023-04-07T01:28:40;99447.00;;;7.07;54.78
16664;BME280;8445;51.270;9.434;2023-04-07T01:31:11;99450.69;;;7.05;54.53
16664;BME280;8445;51.270;9.434;2023-04-07T01:33:37;99441.09;;;7.04;54.58
16664;BME280;8445;51.270;9.434;2023-04-07T01:36:06;99442.97;;;7.02;53.99
16664;BME280;8445;51.270;9.434;2023-04-07T01:38:33;99442.97;;;7.02;53.92
16664;BME280;8445;51.270;9.434;2023-04-07T01:40:59;99437.72;;;7.02;54.21
16664;BME280;8445;51.270;9.434;2023-04-07T01:43:26;99437.72;;;7.02;54.35
16664;BME280;8445;51.270;9.434;2023-04-07T01:45:56;99436.84;;;7.01;54.80
16664;BME280;8445;51.270;9.434;2023-04-07T01:48:25;99434.34;;;7.00;54.69
16664;BME280;8445;51.270;9.434;2023-04-07T01:50:54;99434.41;;;6.98;54.27
16664;BME280;8445;51.270;9.434;2023-04-07T01:53:23;99442.22;;;7.00;54.76
16664;BME280;8445;51.270;9.434;2023-04-07T01:55:51;99434.41;;;6.98;54.82
16664;BME280;8445;51.270;9.434;2023-04-07T01:58:17;99433.66;;;6.96;54.32
16664;BME280;8445;51.270;9.434;2023-04-07T02:00:43;99433.84;;;6.93;54.97
16664;BME280;8445;51.270;9.434;2023-04-07T02:03:23;99428.75;;;6.90;54.60
16664;BME280;8445;51.270;9.434;2023-04-07T02:05:54;99434.31;;;6.85;55.35
16664;BME280;8445;51.270;9.434;2023-04-07T02:08:25;99435.13;;;6.86;55.43
16664;BME280;8445;51.270;9.434;2023-04-07T02:10:56;99426.50;;;6.83;55.20
16664;BME280;8445;51.270;9.434;2023-04-07T02:13:29;99430.06;;;6.82;54.88
16664;BME280;8445;51.270;9.434;2023-04-07T02:15:56;99432.78;;;6.81;55.45
16664;BME280;8445;51.270;9.434;2023-04-07T02:18:29;99427.53;;;6.81;55.32
16664;BME280;8445;51.270;9.434;2023-04-07T02:20:56;99422.47;;;6.78;55.91
16664;BME280;8445;51.270;9.434;2023-04-07T02:23:28;99431.09;;;6.80;55.71
16664;BME280;8445;51.270;9.434;2023-04-07T02:25:56;99421.41;;;6.80;55.12
16664;BME280;8445;51.270;9.434;2023-04-07T02:28:22;99422.47;;;6.78;55.52
16664;BME280;8445;51.270;9.434;2023-04-07T02:30:48;99416.25;;;6.79;55.48
16664;BME280;8445;51.270;9.434;2023-04-07T02:33:14;99413.81;;;6.76;55.26
16664;BME280;8445;51.270;9.434;2023-04-07T02:35:41;99413.16;;;6.72;56.08
16664;BME280;8445;51.270;9.434;2023-04-07T02:38:07;99415.88;;;6.71;55.26
16664;BME280;8445;51.270;9.434;2023-04-07T02:40:34;99420.66;;;6.64;55.65
16664;BME280;8445;51.270;9.434;2023-04-07T02:43:01;99414.53;;;6.63;55.75
16664;BME280;8445;51.270;9.434;2023-04-07T02:45:26;99416.59;;;6.58;55.37
16664;BME280;8445;51.270;9.434;2023-04-07T02:47:52;99421.09;;;6.56;55.50
16664;BME280;8445;51.270;9.434;2023-04-07T02:50:20;99419.50;;;6.53;55.58
16664;BME280;8445;51.270;9.434;2023-04-07T02:52:47;99418.81;;;6.50;55.38
16664;BME280;8445;51.270;9.434;2023-04-07T02:55:15;99412.91;;;6.46;55.13
16664;BME280;8445;51.270;9.434;2023-04-07T02:57:42;99420.13;;;6.43;55.62
16664;BME280;8445;51.270;9.434;2023-04-07T03:00:18;99414.47;;;6.34;55.66
16664;BME280;8445;51.270;9.434;2023-04-07T03:03:12;99412.97;;;6.30;55.39
16664;BME280;8445;51.270;9.434;2023-04-07T03:05:41;99412.28;;;6.27;56.07
16664;BME280;8445;51.270;9.434;2023-04-07T03:08:11;99412.38;;;6.25;55.86
16664;BME280;8445;51.270;9.434;2023-04-07T03:10:37;99416.88;;;6.23;55.85
16664;BME280;8445;51.270;9.434;2023-04-07T03:13:03;99409.16;;;6.20;56.17
16664;BME280;8445;51.270;9.434;2023-04-07T03:15:30;99404.84;;;6.19;56.45
16664;BME280;8445;51.270;9.434;2023-04-07T03:17:58;99403.97;;;6.18;56.45
16664;BME280;8445;51.270;9.434;2023-04-07T03:20:24;99399.69;;;6.17;56.05
16664;BME280;8445;51.270;9.434;2023-04-07T03:22:49;99403.31;;;6.15;56.59
16664;BME280;8445;51.270;9.434;2023-04-07T03:25:28;99399.00;;;6.14;56.38
16664;BME280;8445;51.270;9.434;2023-04-07T03:27:56;99391.13;;;6.14;56.65
16664;BME280;8445;51.270;9.434;2023-04-07T03:30:28;99390.97;;;6.17;56.51
16664;BME280;8445;51.270;9.434;2023-04-07T03:32:56;99392.47;;;6.21;56.56
16664;BME280;8445;51.270;9.434;2023-04-07T03:35:22;99390.78;;;6.20;57.06
16664;BME280;8445;51.270;9.434;2023-04-07T03:37:47;99389.84;;;6.21;56.28
16664;BME280;8445;51.270;9.434;2023-04-07T03:40:16;99385.53;;;6.20;56.85
16664;BME280;8445;51.270;9.434;2023-04-07T03:42:45;99385.34;;;6.23;56.38
16664;BME280;8445;51.270;9.434;2023-04-07T03:45:12;99380.94;;;6.23;56.62
16664;BME280;8445;51.270;9.434;2023-04-07T03:47:46;99376.53;;;6.24;56.33
16664;BME280;8445;51.270;9.434;2023-04-07T03:50:15;99378.31;;;6.23;56.66
16664;BME280;8445;51.270;9.434;2023-04-07T03:52:52;99375.03;;;6.20;57.21
16664;BME280;8445;51.270;9.434;2023-04-07T03:55:24;99388.75;;;6.25;56.63
16664;BME280;8445;51.270;9.434;2023-04-07T03:57:54;99385.34;;;6.23;56.56
16664;BME280;8445;51.270;9.434;2023-04-07T04:00:24;99388.75;;;6.25;56.79
16664;BME280;8445;51.270;9.434;2023-04-07T04:03:03;99386.09;;;6.25;56.96
16664;BME280;8445;51.270;9.434;2023-04-07T04:05:31;99388.91;;;6.22;57.00
16664;BME280;8445;51.270;9.434;2023-04-07T04:07:57;99393.31;;;6.21;56.83
16664;BME280;8445;51.270;9.434;2023-04-07T04:10:25;99397.78;;;6.19;57.10
16664;BME280;8445;51.270;9.434;2023-04-07T04:12:53;99403.91;;;6.20;57.08
16664;BME280;8445;51.270;9.434;2023-04-07T04:15:21;99397.72;;;6.21;57.05
16664;BME280;8445;51.270;9.434;2023-04-07T04:17:50;99399.41;;;6.22;56.75
16664;BME280;8445;51.270;9.434;2023-04-07T04:20:17;99401.88;;;6.25;56.82
16664;BME280;8445;51.270;9.434;2023-04-07T04:22:46;99395.69;;;6.26;57.19
16664;BME280;8445;51.270;9.434;2023-04-07T04:25:12;99395.69;;;6.26;57.03
16664;BME280;8445;51.270;9.434;2023-04-07T04:27:44;99389.56;;;6.26;57.09
16664;BME280;8445;51.270;9.434;2023-04-07T04:30:16;99391.38;;;6.25;56.98
16664;BME280;8445;51.270;9.434;2023-04-07T04:32:48;99399.31;;;6.23;57.18
16664;BME280;8445;51.270;9.434;2023-04-07T04:35:21;99398.38;;;6.25;57.39
16664;BME280;8445;51.270;9.434;2023-04-07T04:38:00;99398.38;;;6.25;56.83
16664;BME280;8445;51.270;9.434;2023-04-07T04:40:27;99403.56;;;6.26;56.83
16664;BME280;8445;51.270;9.434;2023-04-07T04:42:53;99403.38;;;6.29;57.11
16664;BME280;8445;51.270;9.434;2023-04-07T04:45:20;99401.53;;;6.31;57.77
16664;BME280;8445;51.270;9.434;2023-04-07T04:47:49;99407.53;;;6.33;57.60
16664;BME280;8445;51.270;9.434;2023-04-07T04:50:15;99401.25;;;6.36;57.32
16664;BME280;8445;51.270;9.434;2023-04-07T04:52:43;99404.63;;;6.38;57.61
16664;BME280;8445;51.270;9.434;2023-04-07T04:55:16;99404.28;;;6.44;57.82
16664;BME280;8445;51.270;9.434;2023-04-07T04:57:45;99406.63;;;6.49;57.54
16664;BME280;8445;51.270;9.434;2023-04-07T05:00:14;99411.69;;;6.52;57.60
16664;BME280;8445;51.270;9.434;2023-04-07T05:02:43;99404.38;;;6.57;57.96
16664;BME280;8445;51.270;9.434;2023-04-07T05:05:11;99411.16;;;6.61;58.21
16664;BME280;8445;51.270;9.434;2023-04-07T05:07:44;99414.34;;;6.66;58.16
16664;BME280;8445;51.270;9.434;2023-04-07T05:10:12;99413.25;;;6.71;57.76
16664;BME280;8445;51.270;9.434;2023-04-07T05:12:44;99400.84;;;6.73;57.52
16664;BME280;8445;51.270;9.434;2023-04-07T05:15:10;99419.72;;;6.79;57.87
16664;BME280;8445;51.270;9.434;2023-04-07T05:17:39;99413.28;;;6.85;58.11
16664;BME280;8445;51.270;9.434;2023-04-07T05:20:09;99408.47;;;6.92;57.75
16664;BME280;8445;51.270;9.434;2023-04-07T05:22:42;99418.75;;;6.96;57.76
16664;BME280;8445;51.270;9.434;2023-04-07T05:25:12;99418.25;;;7.04;57.83
16664;BME280;8445;51.270;9.434;2023-04-07T05:27:40;99416.09;;;7.11;58.30
16664;BME280;8445;51.270;9.434;2023-04-07T05:30:11;99421.53;;;7.22;57.98
16664;BME280;8445;51.270;9.434;2023-04-07T05:32:38;99418.72;;;7.25;57.82
16664;BME280;8445;51.270;9.434;2023-04-07T05:35:10;99425.22;;;7.34;57.98
16664;BME280;8445;51.270;9.434;2023-04-07T05:37:40;99415.78;;;7.45;58.33
16664;BME280;8445;51.270;9.434;2023-04-07T05:40:09;99419.47;;;7.56;58.29
16664;BME280;8445;51.270;9.434;2023-04-07T05:42:35;99417.19;;;7.65;57.77
16664;BME280;8445;51.270;9.434;2023-04-07T05:45:02;99413.19;;;7.72;58.41
16664;BME280;8445;51.270;9.434;2023-04-07T05:47:28;99415.44;;;7.78;58.32
16664;BME280;8445;51.270;9.434;2023-04-07T05:49:53;99415.91;;;7.85;58.14
16664;BME280;8445;51.270;9.434;2023-04-07T05:52:19;99425.19;;;7.91;57.95
16664;BME280;8445;51.270;9.434;2023-04-07T05:54:51;99417.09;;;7.94;58.34
16664;BME280;8445;51.270;9.434;2023-04-07T05:57:21;99420.28;;;7.99;58.19
16664;BME280;8445;51.270;9.434;2023-04-07T05:59:49;99425.16;;;8.05;58.16
16664;BME280;8445;51.270;9.434;2023-04-07T06:02:15;99420.31;;;8.12;58.01
16664;BME280;8445;51.270;9.434;2023-04-07T06:04:43;99413.84;;;8.18;58.62
16664;BME280;8445;51.270;9.434;2023-04-07T06:07:13;99423.13;;;8.23;57.86
16664;BME280;8445;51.270;9.434;2023-04-07T06:09:42;99420.16;;;8.28;58.30
16664;BME280;8445;51.270;9.434;2023-04-07T06:12:09;99415.97;;;8.38;58.40
16664;BME280;8445;51.270;9.434;2023-04-07T06:14:37;99423.03;;;8.52;58.47
16664;BME280;8445;51.270;9.434;2023-04-07T06:17:03;99421.13;;;8.67;58.72
16664;BME280;8445;51.270;9.434;2023-04-07T06:19:29;99429.59;;;8.85;58.61
16664;BME280;8445;51.270;9.434;2023-04-07T06:21:54;99425.78;;;9.02;58.80
16664;BME280;8445;51.270;9.434;2023-04-07T06:24:20;99426.84;;;9.13;58.78
16664;BME280;8445;51.270;9.434;2023-04-07T06:26:47;99437.72;;;9.21;58.95
16664;BME280;8445;51.270;9.434;2023-04-07T06:29:13;99436.56;;;9.25;59.13
16664;BME280;8445;51.270;9.434;2023-04-07T06:31:39;99435.59;;;9.26;58.76
16664;BME280;8445;51.270;9.434;2023-04-07T06:34:05;99447.97;;;9.39;59.00
16664;BME280;8445;51.270;9.434;2023-04-07T06:36:30;99447.50;;;9.45;58.81
16664;BME280;8445;51.270;9.434;2023-04-07T06:38:57;99434.41;;;9.43;59.20
16664;BME280;8445;51.270;9.434;2023-04-07T06:41:22;99443.41;;;9.41;58.92
16664;BME280;8445;51.270;9.434;2023-04-07T06:43:49;99446.56;;;9.33;59.54
16664;BME280;8445;51.270;9.434;2023-04-07T06:46:20;99434.97;;;9.36;59.64
16664;BME280;8445;51.270;9.434;2023-04-07T06:48:46;99448.44;;;9.44;58.87
16664;BME280;8445;51.270;9.434;2023-04-07T06:51:14;99451.09;;;9.44;59.19
16664;BME280;8445;51.270;9.434;2023-04-07T06:53:42;99448.78;;;9.39;59.50
16664;BME280;8445;51.270;9.434;2023-04-07T06:56:11;99449.84;;;9.37;59.64
16664;BME280;8445;51.270;9.434;2023-04-07T06:58:37;99454.69;;;9.43;59.60
16664;BME280;8445;51.270;9.434;2023-04-07T07:01:03;99461.00;;;9.53;59.41
16664;BME280;8445;51.270;9.434;2023-04-07T07:03:29;99461.84;;;9.67;59.40
16664;BME280;8445;51.270;9.434;2023-04-07T07:05:59;99455.78;;;9.77;59.48
16664;BME280;8445;51.270;9.434;2023-04-07T07:08:26;99467.50;;;9.86;59.27
16664;BME280;8445;51.270;9.434;2023-04-07T07:10:54;99465.47;;;9.90;59.05
16664;BME280;8445;51.270;9.434;2023-04-07T07:13:22;99466.44;;;9.89;59.04
16664;BME280;8445;51.270;9.434;2023-04-07T07:15:49;99466.13;;;9.93;58.83
16664;BME280;8445;51.270;9.434;2023-04-07T07:18:16;99461.56;;;9.96;59.07
16664;BME280;8445;51.270;9.434;2023-04-07T07:20:41;99468.75;;;9.93;59.02
16664;BME280;8445;51.270;9.434;2023-04-07T07:23:06;99470.00;;;10.01;58.91
16664;BME280;8445;51.270;9.434;2023-04-07T07:25:32;99464.72;;;10.01;59.15
16664;BME280;8445;51.270;9.434;2023-04-07T07:27:58;99465.69;;;10.00;59.34
16664;BME280;8445;51.270;9.434;2023-04-07T07:30:23;99474.22;;;10.03;59.38
16664;BME280;8445;51.270;9.434;2023-04-07T07:32:49;99475.47;;;10.11;59.19
16664;BME280;8445;51.270;9.434;2023-04-07T07:35:15;99478.25;;;10.20;59.17
16664;BME280;8445;51.270;9.434;2023-04-07T07:37:41;99484.06;;;10.26;59.11
16664;BME280;8445;51.270;9.434;2023-04-07T07:40:09;99484.44;;;10.32;59.01
16664;BME280;8445;51.270;9.434;2023-04-07T07:42:49;99483.63;;;10.32;58.91
16664;BME280;8445;51.270;9.434;2023-04-07T07:45:22;99475.81;;;10.30;58.92
16664;BME280;8445;51.270;9.434;2023-04-07T07:48:21;99486.13;;;10.33;58.80
16664;BME280;8445;51.270;9.434;2023-04-07T07:53:37;99492.22;;;10.60;59.40
16664;BME280;8445;51.270;9.434;2023-04-07T07:56:52;99489.03;;;10.90;59.40
16664;BME280;8445;51.270;9.434;2023-04-07T08:00:03;99488.03;;;11.16;59.32
16664;BME280;8445;51.270;9.434;2023-04-07T08:03:11;99486.00;;;11.31;59.21
16664;BME280;8445;51.270;9.434;2023-04-07T08:05:53;99498.28;;;11.54;59.18
16664;BME280;8445;51.270;9.434;2023-04-07T08:08:38;99491.28;;;11.76;58.91
16664;BME280;8445;51.270;9.434;2023-04-07T08:11:38;99497.91;;;11.93;58.93
16664;BME280;8445;51.270;9.434;2023-04-07T08:14:12;99496.69;;;12.09;58.74
16664;BME280;8445;51.270;9.434;2023-04-07T08:16:58;99496.78;;;12.19;58.46
16664;BME280;8445;51.270;9.434;2023-04-07T08:19:45;99497.16;;;12.25;58.34
16664;BME280;8445;51.270;9.434;2023-04-07T08:22:16;99509.72;;;12.12;58.32
16664;BME280;8445;51.270;9.434;2023-04-07T08:24:55;99506.09;;;12.13;58.70
16664;BME280;8445;51.270;9.434;2023-04-07T08:27:45;99512.81;;;12.28;58.69
16664;BME280;8445;51.270;9.434;2023-04-07T08:30:15;99501.66;;;12.46;58.49
16664;BME280;8445;51.270;9.434;2023-04-07T08:32:59;99512.84;;;12.61;56.13
16664;BME280;8445;51.270;9.434;2023-04-07T08:35:27;99512.97;;;12.81;58.18
16664;BME280;8445;51.270;9.434;2023-04-07T08:37:54;99507.75;;;12.90;58.31
16664;BME280;8445;51.270;9.434;2023-04-07T08:40:35;99512.28;;;13.00;57.23
16664;BME280;8445;51.270;9.434;2023-04-07T08:43:07;99514.31;;;13.08;57.88
16664;BME280;8445;51.270;9.434;2023-04-07T08:45:38;99511.00;;;13.15;58.12
16664;BME280;8445;51.270;9.434;2023-04-07T08:48:27;99508.28;;;13.05;56.46
16664;BME280;8445;51.270;9.434;2023-04-07T08:51:09;99510.47;;;13.22;56.55
16664;BME280;8445;51.270;9.434;2023-04-07T08:54:03;99510.25;;;13.34;57.48
16664;BME280;8445;51.270;9.434;2023-04-07T08:56:40;99529.22;;;13.41;58.21
16664;BME280;8445;51.270;9.434;2023-04-07T08:59:27;99521.72;;;13.56;55.00
16664;BME280;8445;51.270;9.434;2023-04-07T09:02:05;99516.19;;;13.69;57.46
16664;BME280;8445;51.270;9.434;2023-04-07T09:04:33;99524.78;;;13.83;57.66
16664;BME280;8445;51.270;9.434;2023-04-07T09:07:03;99530.44;;;13.99;57.23
16664;BME280;8445;51.270;9.434;2023-04-07T09:09:29;99535.16;;;13.86;57.07
16664;BME280;8445;51.270;9.434;2023-04-07T09:11:59;99530.56;;;13.98;57.22
16664;BME280;8445;51.270;9.434;2023-04-07T09:17:43;99529.22;;;14.23;57.24
16664;BME280;8445;51.270;9.434;2023-04-07T09:20:29;99526.22;;;14.57;57.31
16664;BME280;8445;51.270;9.434;2023-04-07T09:23:31;99527.78;;;14.89;55.57
16664;BME280;8445;51.270;9.434;2023-04-07T09:32:02;99530.78;;;15.34;56.61
16664;BME280;8445;51.270;9.434;2023-04-07T09:34:40;99517.78;;;15.31;56.18
16664;BME280;8445;51.270;9.434;2023-04-07T09:37:27;99521.88;;;15.15;55.46
16664;BME280;8445;51.270;9.434;2023-04-07T09:39:55;99515.75;;;14.95;55.86
16664;BME280;8445;51.270;9.434;2023-04-07T09:42:43;99517.13;;;14.89;55.59
16664;BME280;8445;51.270;9.434;2023-04-07T09:45:28;99524.84;;;14.73;54.40
16664;BME280;8445;51.270;9.434;2023-04-07T09:48:07;99523.56;;;14.57;55.25
16664;BME280;8445;51.270;9.434;2023-04-07T09:50:45;99516.53;;;14.36;55.15
16664;BME280;8445;51.270;9.434;2023-04-07T09:53:16;99523.38;;;14.29;54.85
16664;BME280;8445;51.270;9.434;2023-04-07T09:55:43;99518.16;;;14.18;55.12
16664;BME280;8445;51.270;9.434;2023-04-07T09:58:12;99511.41;;;13.94;54.48
16664;BME280;8445;51.270;9.434;2023-04-07T10:00:39;99518.75;;;13.81;55.73
16664;BME280;8445;51.270;9.434;2023-04-07T10:03:06;99520.63;;;13.90;56.08
16664;BME280;8445;51.270;9.434;2023-04-07T10:05:33;99525.13;;;13.99;56.06
16664;BME280;8445;51.270;9.434;2023-04-07T10:07:59;99527.13;;;14.17;56.05
16664;BME280;8445;51.270;9.434;2023-04-07T10:10:26;99525.31;;;14.27;55.89
16664;BME280;8445;51.270;9.434;2023-04-07T10:12:53;99520.16;;;14.45;56.06
16664;BME280;8445;51.270;9.434;2023-04-07T10:15:22;99526.81;;;14.71;55.87
16664;BME280;8445;51.270;9.434;2023-04-07T10:17:49;99518.41;;;14.75;55.42
16664;BME280;8445;51.270;9.434;2023-04-07T10:20:17;99523.00;;;14.83;55.63
16664;BME280;8445;51.270;9.434;2023-04-07T10:22:47;99526.81;;;14.90;55.02
16664;BME280;8445;51.270;9.434;2023-04-07T10:25:15;99525.53;;;14.75;54.78
16664;BME280;8445;51.270;9.434;2023-04-07T10:28:07;99524.81;;;14.53;54.77
16664;BME280;8445;51.270;9.434;2023-04-07T10:30:32;99527.22;;;14.76;55.31
16664;BME280;8445;51.270;9.434;2023-04-07T10:32:58;99516.31;;;14.89;55.13
16664;BME280;8445;51.270;9.434;2023-04-07T10:35:24;99524.97;;;14.81;54.15
16664;BME280;8445;51.270;9.434;2023-04-07T10:38:10;99529.41;;;14.31;53.13
16664;BME280;8445;51.270;9.434;2023-04-07T10:40:38;99520.81;;;14.18;54.24
16664;BME280;8445;51.270;9.434;2023-04-07T10:43:05;99513.19;;;13.93;54.10
16664;BME280;8445;51.270;9.434;2023-04-07T10:48:11;99524.28;;;13.99;54.31
16664;BME280;8445;51.270;9.434;2023-04-07T10:50:38;99520.00;;;14.17;54.44
16664;BME280;8445;51.270;9.434;2023-04-07T10:53:15;99522.97;;;14.44;54.70
16664;BME280;8445;51.270;9.434;2023-04-07T10:55:45;99525.13;;;14.89;54.71
16664;BME280;8445;51.270;9.434;2023-04-07T10:58:31;99518.47;;;15.23;52.87
16664;BME280;8445;51.270;9.434;2023-04-07T11:03:37;99517.75;;;15.88;52.97
16664;BME280;8445;51.270;9.434;2023-04-07T11:06:13;99517.97;;;15.95;53.04
16664;BME280;8445;51.270;9.434;2023-04-07T11:08:40;99514.53;;;16.12;54.19
16664;BME280;8445;51.270;9.434;2023-04-07T11:11:07;99515.59;;;16.20;53.72
16664;BME280;8445;51.270;9.434;2023-04-07T11:13:40;99508.47;;;15.92;50.06
16664;BME280;8445;51.270;9.434;2023-04-07T11:16:09;99504.03;;;15.73;53.22
16664;BME280;8445;51.270;9.434;2023-04-07T11:18:36;99516.44;;;15.54;53.71
16664;BME280;8445;51.270;9.434;2023-04-07T11:21:02;99506.06;;;15.51;53.88
16664;BME280;8445;51.270;9.434;2023-04-07T11:23:40;99505.47;;;15.57;52.79
16664;BME280;8445;51.270;9.434;2023-04-07T11:26:07;99504.59;;;15.67;53.11
16664;BME280;8445;51.270;9.434;2023-04-07T11:28:33;99494.53;;;15.61;52.78
16664;BME280;8445;51.270;9.434;2023-04-07T11:30:59;99502.38;;;15.62;52.31
16664;BME280;8445;51.270;9.434;2023-04-07T11:33:27;99511.97;;;15.55;52.45
16664;BME280;8445;51.270;9.434;2023-04-07T11:35:59;99508.31;;;15.46;51.50
16664;BME280;8445;51.270;9.434;2023-04-07T11:38:29;99514.19;;;15.60;52.58
16664;BME280;8445;51.270;9.434;2023-04-07T11:40:56;99516.09;;;15.77;52.93
16664;BME280;8445;51.270;9.434;2023-04-07T11:43:35;99510.03;;;16.13;53.18
16664;BME280;8445;51.270;9.434;2023-04-07T11:48:34;99513.25;;;16.53;53.08
16664;BME280;8445;51.270;9.434;2023-04-07T11:51:01;99518.72;;;16.97;52.81
16664;BME280;8445;51.270;9.434;2023-04-07T11:53:33;99514.47;;;16.95;52.36
16664;BME280;8445;51.270;9.434;2023-04-07T11:56:00;99515.75;;;17.09;52.61
16664;BME280;8445;51.270;9.434;2023-04-07T11:58:26;99518.81;;;17.40;52.69
16664;BME280;8445;51.270;9.434;2023-04-07T12:00:58;99513.28;;;17.33;49.99
16664;BME280;8445;51.270;9.434;2023-04-07T12:03:28;99516.88;;;16.98;50.85
16664;BME280;8445;51.270;9.434;2023-04-07T12:05:54;99524.63;;;16.55;51.22
16664;BME280;8445;51.270;9.434;2023-04-07T12:08:20;99521.44;;;16.33;51.46
16664;BME280;8445;51.270;9.434;2023-04-07T12:10:48;99519.75;;;16.32;52.46
16664;BME280;8445;51.270;9.434;2023-04-07T12:13:13;99520.28;;;16.36;52.60
16664;BME280;8445;51.270;9.434;2023-04-07T12:15:39;99522.72;;;16.47;52.51
16664;BME280;8445;51.270;9.434;2023-04-07T12:18:05;99514.88;;;16.45;52.29
16664;BME280;8445;51.270;9.434;2023-04-07T12:20:31;99522.94;;;16.54;52.18
16664;BME280;8445;51.270;9.434;2023-04-07T12:22:57;99515.31;;;16.59;52.19
16664;BME280;8445;51.270;9.434;2023-04-07T12:25:24;99514.41;;;16.68;51.55
16664;BME280;8445;51.270;9.434;2023-04-07T12:27:50;99509.00;;;16.42;51.50
16664;BME280;8445;51.270;9.434;2023-04-07T12:30:16;99516.97;;;16.24;51.42
16664;BME280;8445;51.270;9.434;2023-04-07T12:32:41;99511.25;;;16.19;51.91
16664;BME280;8445;51.270;9.434;2023-04-07T12:35:07;99513.41;;;16.33;52.16
16664;BME280;8445;51.270;9.434;2023-04-07T12:37:32;99513.91;;;16.65;52.38
16664;BME280;8445;51.270;9.434;2023-04-07T12:39:58;99510.59;;;16.89;52.08
16664;BME280;8445;51.270;9.434;2023-04-07T12:42:24;99508.53;;;17.01;51.75
16664;BME280;8445;51.270;9.434;2023-04-07T12:44:50;99507.75;;;16.90;51.52
16664;BME280;8445;51.270;9.434;2023-04-07T12:47:16;99520.53;;;16.79;51.45
16664;BME280;8445;51.270;9.434;2023-04-07T12:49:41;99508.56;;;16.65;51.16
16664;BME280;8445;51.270;9.434;2023-04-07T12:52:07;99513.56;;;16.50;51.36
16664;BME280;8445;51.270;9.434;2023-04-07T12:54:33;99524.09;;;16.33;51.22
16664;BME280;8445;51.270;9.434;2023-04-07T12:56:59;99516.00;;;16.43;51.55
16664;BME280;8445;51.270;9.434;2023-04-07T12:59:25;99526.09;;;16.67;51.29
16664;BME280;8445;51.270;9.434;2023-04-07T13:01:50;99521.34;;;16.79;51.28
16664;BME280;8445;51.270;9.434;2023-04-07T13:04:17;99524.41;;;16.84;51.33
16664;BME280;8445;51.270;9.434;2023-04-07T13:06:42;99530.81;;;16.92;51.28
16664;BME280;8445;51.270;9.434;2023-04-07T13:09:08;99529.69;;;16.94;51.04
16664;BME280;8445;51.270;9.434;2023-04-07T13:11:34;99524.94;;;16.88;50.52
16664;BME280;8445;51.270;9.434;2023-04-07T13:14:00;99532.44;;;17.02;50.70
16664;BME280;8445;51.270;9.434;2023-04-07T13:16:26;99534.34;;;17.10;50.31
16664;BME280;8445;51.270;9.434;2023-04-07T13:18:51;99534.53;;;17.17;50.39
16664;BME280;8445;51.270;9.434;2023-04-07T13:21:17;99532.19;;;17.14;50.16
16664;BME280;8445;51.270;9.434;2023-04-07T13:23:43;99531.50;;;17.12;50.34
16664;BME280;8445;51.270;9.434;2023-04-07T13:26:08;99520.50;;;17.15;49.93
16664;BME280;8445;51.270;9.434;2023-04-07T13:28:34;99521.56;;;17.22;50.37
16664;BME280;8445;51.270;9.434;2023-04-07T13:30:59;99530.66;;;17.11;49.36
16664;BME280;8445;51.270;9.434;2023-04-07T13:33:25;99526.47;;;16.90;49.63
16664;BME280;8445;51.270;9.434;2023-04-07T13:35:50;99521.13;;;16.72;50.03
16664;BME280;8445;51.270;9.434;2023-04-07T13:38:16;99512.53;;;16.60;49.68
16664;BME280;8445;51.270;9.434;2023-04-07T13:40:42;99516.56;;;16.47;50.07
16664;BME280;8445;51.270;9.434;2023-04-07T13:43:09;99525.22;;;16.49;50.17
16664;BME280;8445;51.270;9.434;2023-04-07T13:45:36;99522.56;;;16.49;50.05
16664;BME280;8445;51.270;9.434;2023-04-07T13:48:02;99520.97;;;16.56;50.35
16664;BME280;8445;51.270;9.434;2023-04-07T13:50:27;99517.84;;;16.60;50.17
16664;BME280;8445;51.270;9.434;2023-04-07T13:52:53;99523.97;;;16.71;49.88
16664;BME280;8445;51.270;9.434;2023-04-07T13:55:18;99525.25;;;16.85;49.88
16664;BME280;8445;51.270;9.434;2023-04-07T13:57:44;99529.69;;;16.94;49.69